sensor_id;sensor_type;location;lat;lon;timestamp;P1;durP1;ratioP1;P2;durP2;ratioP2
55362;SDS011;41244;49.242;9.060;2022-12-20T00:00:53;47.17;;;29.30;;
55362;SDS011;41244;49.242;9.060;2022-12-20T00:03:19;39.10;;;26.25;;
55362;SDS011;41244;49.242;9.060;2022-12-20T00:05:45;45.35;;;27.95;;
55362;SDS011;41244;49.242;9.060;2022-12-20T00:08:11;47.00;;;26.08;;
55362;SDS011;41244;49.242;9.060;2022-12-20T00:10:38;41.50;;;27.58;;
55362;SDS011;41244;49.242;9.060;2022-12-20T00:13:06;47.55;;;28.02;;
55362;SDS011;41244;49.242;9.060;2022-12-20T00:15:32;46.50;;;27.20;;
55362;SDS011;41244;49.242;9.060;2022-12-20T00:17:58;48.08;;;28.33;;
55362;SDS011;41244;49.242;9.060;2022-12-20T00:20:25;40.90;;;26.63;;
55362;SDS011;41244;49.242;9.060;2022-12-20T00:22:51;41.60;;;26.48;;
55362;SDS011;41244;49.242;9.060;2022-12-20T00:25:18;42.03;;;26.55;;
55362;SDS011;41244;49.242;9.060;2022-12-20T00:27:44;46.80;;;27.77;;
55362;SDS011;41244;49.242;9.060;2022-12-20T00:30:14;43.55;;;27.60;;
55362;SDS011;41244;49.242;9.060;2022-12-20T00:32:40;42.88;;;26.65;;
55362;SDS011;41244;49.242;9.060;2022-12-20T00:35:06;49.63;;;29.67;;
55362;SDS011;41244;49.242;9.060;2022-12-20T00:37:32;43.97;;;27.73;;
55362;SDS011;41244;49.242;9.060;2022-12-20T00:39:58;41.05;;;25.33;;
55362;SDS011;41244;49.242;9.060;2022-12-20T00:42:24;42.88;;;27.20;;
55362;SDS011;41244;49.242;9.060;2022-12-20T00:44:49;39.83;;;25.88;;
55362;SDS011;41244;49.242;9.060;2022-12-20T00:47:15;46.70;;;28.23;;
55362;SDS011;41244;49.242;9.060;2022-12-20T00:49:41;45.75;;;27.75;;
55362;SDS011;41244;49.242;9.060;2022-12-20T00:52:07;48.28;;;29.02;;
55362;SDS011;41244;49.242;9.060;2022-12-20T00:54:33;46.13;;;27.67;;
55362;SDS011;41244;49.242;9.060;2022-12-20T00:56:58;42.65;;;26.77;;
55362;SDS011;41244;49.242;9.060;2022-12-20T00:59:24;48.65;;;28.60;;
55362;SDS011;41244;49.242;9.060;2022-12-20T01:01:50;46.10;;;28.13;;
55362;SDS011;41244;49.242;9.060;2022-12-20T01:04:16;45.22;;;26.63;;
55362;SDS011;41244;49.242;9.060;2022-12-20T01:06:42;47.35;;;28.45;;
55362;SDS011;41244;49.242;9.060;2022-12-20T01:09:09;48.03;;;28.33;;
55362;SDS011;41244;49.242;9.060;2022-12-20T01:11:35;49.97;;;29.33;;
55362;SDS011;41244;49.242;9.060;2022-12-20T01:14:04;44.97;;;27.75;;
55362;SDS011;41244;49.242;9.060;2022-12-20T01:16:35;50.58;;;28.45;;
55362;SDS011;41244;49.242;9.060;2022-12-20T01:19:04;44.13;;;26.30;;
55362;SDS011;41244;49.242;9.060;2022-12-20T01:21:31;43.88;;;27.17;;
55362;SDS011;41244;49.242;9.060;2022-12-20T01:23:57;44.30;;;26.70;;
55362;SDS011;41244;49.242;9.060;2022-12-20T01:26:23;53.13;;;28.23;;
55362;SDS011;41244;49.242;9.060;2022-12-20T01:28:54;50.05;;;28.17;;
55362;SDS011;41244;49.242;9.060;2022-12-20T01:31:23;41.67;;;26.35;;
55362;SDS011;41244;49.242;9.060;2022-12-20T01:33:49;48.17;;;28.50;;
55362;SDS011;41244;49.242;9.060;2022-12-20T01:36:17;49.58;;;28.23;;
55362;SDS011;41244;49.242;9.060;2022-12-20T01:38:48;45.92;;;27.02;;
55362;SDS011;41244;49.242;9.060;2022-12-20T01:41:18;45.05;;;27.40;;
55362;SDS011;41244;49.242;9.060;2022-12-20T01:43:56;51.70;;;28.00;;
55362;SDS011;41244;49.242;9.060;2022-12-20T01:46:24;45.35;;;27.60;;
55362;SDS011;41244;49.242;9.060;2022-12-20T01:51:22;53.00;;;28.08;;
55362;SDS011;41244;49.242;9.060;2022-12-20T01:53:49;40.30;;;25.85;;
55362;SDS011;41244;49.242;9.060;2022-12-20T01:56:22;45.33;;;26.27;;
55362;SDS011;41244;49.242;9.060;2022-12-20T01:58:48;50.47;;;27.25;;
55362;SDS011;41244;49.242;9.060;2022-12-20T02:01:16;45.72;;;27.13;;
55362;SDS011;41244;49.242;9.060;2022-12-20T02:03:41;47.30;;;27.55;;
55362;SDS011;41244;49.242;9.060;2022-12-20T02:06:15;43.05;;;26.42;;
55362;SDS011;41244;49.242;9.060;2022-12-20T02:08:46;44.05;;;27.63;;
55362;SDS011;41244;49.242;9.060;2022-12-20T02:14:23;52.35;;;29.85;;
55362;SDS011;41244;49.242;9.060;2022-12-20T02:26:29;46.45;;;28.25;;
55362;SDS011;41244;49.242;9.060;2022-12-20T02:32:49;45.50;;;27.53;;
55362;SDS011;41244;49.242;9.060;2022-12-20T02:34:59;41.70;;;25.95;;
55362;SDS011;41244;49.242;9.060;2022-12-20T02:37:24;47.63;;;26.90;;
55362;SDS011;41244;49.242;9.060;2022-12-20T02:39:50;49.80;;;28.10;;
55362;SDS011;41244;49.242;9.060;2022-12-20T02:42:17;46.03;;;27.27;;
55362;SDS011;41244;49.242;9.060;2022-12-20T02:44:51;48.90;;;27.55;;
55362;SDS011;41244;49.242;9.060;2022-12-20T02:47:42;48.53;;;26.33;;
55362;SDS011;41244;49.242;9.060;2022-12-20T02:50:19;47.60;;;28.05;;
55362;SDS011;41244;49.242;9.060;2022-12-20T02:52:51;47.58;;;27.40;;
55362;SDS011;41244;49.242;9.060;2022-12-20T02:55:17;46.08;;;27.27;;
55362;SDS011;41244;49.242;9.060;2022-12-20T02:57:51;45.78;;;27.23;;
55362;SDS011;41244;49.242;9.060;2022-12-20T03:00:23;51.28;;;28.00;;
55362;SDS011;41244;49.242;9.060;2022-12-20T03:02:49;45.63;;;28.17;;
55362;SDS011;41244;49.242;9.060;2022-12-20T03:05:35;48.88;;;27.30;;
55362;SDS011;41244;49.242;9.060;2022-12-20T03:08:08;47.90;;;28.42;;
55362;SDS011;41244;49.242;9.060;2022-12-20T03:10:35;48.03;;;29.73;;
55362;SDS011;41244;49.242;9.060;2022-12-20T03:13:01;39.72;;;26.30;;
55362;SDS011;41244;49.242;9.060;2022-12-20T03:15:27;48.58;;;28.00;;
55362;SDS011;41244;49.242;9.060;2022-12-20T03:17:53;44.40;;;27.13;;
55362;SDS011;41244;49.242;9.060;2022-12-20T03:20:18;50.80;;;28.92;;
55362;SDS011;41244;49.242;9.060;2022-12-20T03:22:44;50.53;;;28.05;;
55362;SDS011;41244;49.242;9.060;2022-12-20T03:25:10;44.65;;;26.70;;
55362;SDS011;41244;49.242;9.060;2022-12-20T03:27:36;52.70;;;28.77;;
55362;SDS011;41244;49.242;9.060;2022-12-20T03:30:02;56.45;;;29.42;;
55362;SDS011;41244;49.242;9.060;2022-12-20T03:32:29;55.80;;;30.23;;
55362;SDS011;41244;49.242;9.060;2022-12-20T03:34:55;49.10;;;28.15;;
55362;SDS011;41244;49.242;9.060;2022-12-20T03:37:21;53.33;;;28.90;;
55362;SDS011;41244;49.242;9.060;2022-12-20T03:39:47;49.15;;;28.60;;
55362;SDS011;41244;49.242;9.060;2022-12-20T03:42:12;50.53;;;27.88;;
55362;SDS011;41244;49.242;9.060;2022-12-20T03:44:38;45.47;;;27.13;;
55362;SDS011;41244;49.242;9.060;2022-12-20T03:47:04;50.90;;;29.02;;
55362;SDS011;41244;49.242;9.060;2022-12-20T03:49:30;49.42;;;27.70;;
55362;SDS011;41244;49.242;9.060;2022-12-20T03:51:55;46.88;;;27.35;;
55362;SDS011;41244;49.242;9.060;2022-12-20T03:54:23;45.33;;;27.45;;
55362;SDS011;41244;49.242;9.060;2022-12-20T03:56:48;46.22;;;26.88;;
55362;SDS011;41244;49.242;9.060;2022-12-20T03:59:14;47.85;;;28.05;;
55362;SDS011;41244;49.242;9.060;2022-12-20T04:01:40;46.78;;;27.50;;
55362;SDS011;41244;49.242;9.060;2022-12-20T04:04:06;55.15;;;29.08;;
55362;SDS011;41244;49.242;9.060;2022-12-20T04:06:34;54.90;;;27.85;;
55362;SDS011;41244;49.242;9.060;2022-12-20T04:09:00;52.25;;;28.23;;
55362;SDS011;41244;49.242;9.060;2022-12-20T04:11:25;55.53;;;28.88;;
55362;SDS011;41244;49.242;9.060;2022-12-20T04:13:52;52.22;;;27.58;;
55362;SDS011;41244;49.242;9.060;2022-12-20T04:16:22;48.17;;;26.45;;
55362;SDS011;41244;49.242;9.060;2022-12-20T04:18:51;52.97;;;28.45;;
55362;SDS011;41244;49.242;9.060;2022-12-20T04:21:21;46.45;;;27.15;;
55362;SDS011;41244;49.242;9.060;2022-12-20T04:23:48;48.38;;;27.45;;
55362;SDS011;41244;49.242;9.060;2022-12-20T04:26:15;51.70;;;28.25;;
55362;SDS011;41244;49.242;9.060;2022-12-20T04:28:41;48.03;;;26.90;;
55362;SDS011;41244;49.242;9.060;2022-12-20T04:31:07;46.25;;;27.38;;
55362;SDS011;41244;49.242;9.060;2022-12-20T04:33:32;47.33;;;26.35;;
55362;SDS011;41244;49.242;9.060;2022-12-20T04:35:58;52.38;;;27.38;;
55362;SDS011;41244;49.242;9.060;2022-12-20T04:38:24;44.15;;;26.75;;
55362;SDS011;41244;49.242;9.060;2022-12-20T04:40:51;42.67;;;27.42;;
55362;SDS011;41244;49.242;9.060;2022-12-20T04:43:19;48.58;;;28.30;;
55362;SDS011;41244;49.242;9.060;2022-12-20T04:45:49;55.42;;;32.47;;
55362;SDS011;41244;49.242;9.060;2022-12-20T04:48:17;79.75;;;40.15;;
55362;SDS011;41244;49.242;9.060;2022-12-20T04:50:47;100.32;;;55.22;;
55362;SDS011;41244;49.242;9.060;2022-12-20T04:53:15;115.30;;;58.88;;
55362;SDS011;41244;49.242;9.060;2022-12-20T04:56:00;73.95;;;38.67;;
55362;SDS011;41244;49.242;9.060;2022-12-20T04:58:26;55.42;;;31.48;;
55362;SDS011;41244;49.242;9.060;2022-12-20T05:00:52;56.75;;;33.10;;
55362;SDS011;41244;49.242;9.060;2022-12-20T05:03:18;57.47;;;31.38;;
55362;SDS011;41244;49.242;9.060;2022-12-20T05:05:46;58.58;;;32.60;;
55362;SDS011;41244;49.242;9.060;2022-12-20T05:08:12;48.25;;;28.23;;
55362;SDS011;41244;49.242;9.060;2022-12-20T05:10:38;40.88;;;27.08;;
55362;SDS011;41244;49.242;9.060;2022-12-20T05:13:03;58.05;;;34.38;;
55362;SDS011;41244;49.242;9.060;2022-12-20T05:15:29;53.10;;;31.20;;
55362;SDS011;41244;49.242;9.060;2022-12-20T05:17:55;52.65;;;29.75;;
55362;SDS011;41244;49.242;9.060;2022-12-20T05:20:23;41.45;;;26.88;;
55362;SDS011;41244;49.242;9.060;2022-12-20T05:22:53;49.55;;;27.60;;
55362;SDS011;41244;49.242;9.060;2022-12-20T05:25:39;44.60;;;27.92;;
55362;SDS011;41244;49.242;9.060;2022-12-20T05:28:29;49.03;;;29.67;;
55362;SDS011;41244;49.242;9.060;2022-12-20T05:30:55;43.05;;;26.98;;
55362;SDS011;41244;49.242;9.060;2022-12-20T05:33:21;53.90;;;29.77;;
55362;SDS011;41244;49.242;9.060;2022-12-20T05:35:47;48.10;;;29.88;;
55362;SDS011;41244;49.242;9.060;2022-12-20T05:38:13;45.40;;;28.48;;
55362;SDS011;41244;49.242;9.060;2022-12-20T05:40:39;42.45;;;27.55;;
55362;SDS011;41244;49.242;9.060;2022-12-20T05:43:05;49.85;;;29.38;;
55362;SDS011;41244;49.242;9.060;2022-12-20T05:45:31;49.17;;;30.00;;
55362;SDS011;41244;49.242;9.060;2022-12-20T05:47:57;54.10;;;30.75;;
55362;SDS011;41244;49.242;9.060;2022-12-20T05:50:23;44.28;;;27.25;;
55362;SDS011;41244;49.242;9.060;2022-12-20T05:52:49;40.08;;;25.38;;
55362;SDS011;41244;49.242;9.060;2022-12-20T05:55:15;51.40;;;27.88;;
55362;SDS011;41244;49.242;9.060;2022-12-20T05:57:41;47.40;;;26.42;;
55362;SDS011;41244;49.242;9.060;2022-12-20T06:00:07;43.22;;;26.63;;
55362;SDS011;41244;49.242;9.060;2022-12-20T06:02:33;49.53;;;30.00;;
55362;SDS011;41244;49.242;9.060;2022-12-20T06:04:59;48.17;;;28.65;;
55362;SDS011;41244;49.242;9.060;2022-12-20T06:07:26;45.28;;;27.75;;
55362;SDS011;41244;49.242;9.060;2022-12-20T06:09:55;48.63;;;27.98;;
55362;SDS011;41244;49.242;9.060;2022-12-20T06:12:22;44.63;;;27.85;;
55362;SDS011;41244;49.242;9.060;2022-12-20T06:14:49;42.00;;;26.02;;
55362;SDS011;41244;49.242;9.060;2022-12-20T06:17:15;51.53;;;27.23;;
55362;SDS011;41244;49.242;9.060;2022-12-20T06:19:42;44.63;;;26.52;;
55362;SDS011;41244;49.242;9.060;2022-12-20T06:22:08;41.80;;;26.48;;
55362;SDS011;41244;49.242;9.060;2022-12-20T06:24:34;40.85;;;25.10;;
55362;SDS011;41244;49.242;9.060;2022-12-20T06:27:00;42.65;;;24.38;;
55362;SDS011;41244;49.242;9.060;2022-12-20T06:29:26;39.88;;;23.80;;
55362;SDS011;41244;49.242;9.060;2022-12-20T06:31:53;46.58;;;27.55;;
55362;SDS011;41244;49.242;9.060;2022-12-20T06:34:19;42.95;;;26.08;;
55362;SDS011;41244;49.242;9.060;2022-12-20T06:36:45;37.60;;;24.42;;
55362;SDS011;41244;49.242;9.060;2022-12-20T06:39:11;42.22;;;25.95;;
55362;SDS011;41244;49.242;9.060;2022-12-20T06:41:38;50.15;;;28.83;;
55362;SDS011;41244;49.242;9.060;2022-12-20T06:44:04;37.42;;;25.08;;
55362;SDS011;41244;49.242;9.060;2022-12-20T06:46:31;39.33;;;24.42;;
55362;SDS011;41244;49.242;9.060;2022-12-20T06:48:56;37.83;;;24.90;;
55362;SDS011;41244;49.242;9.060;2022-12-20T06:51:25;37.38;;;24.38;;
55362;SDS011;41244;49.242;9.060;2022-12-20T06:53:51;36.08;;;23.88;;
55362;SDS011;41244;49.242;9.060;2022-12-20T06:56:17;39.67;;;25.08;;
55362;SDS011;41244;49.242;9.060;2022-12-20T06:58:43;51.90;;;27.70;;
55362;SDS011;41244;49.242;9.060;2022-12-20T07:01:10;40.72;;;26.70;;
55362;SDS011;41244;49.242;9.060;2022-12-20T07:03:36;40.42;;;25.95;;
55362;SDS011;41244;49.242;9.060;2022-12-20T07:06:01;45.55;;;27.33;;
55362;SDS011;41244;49.242;9.060;2022-12-20T07:08:28;42.28;;;27.20;;
55362;SDS011;41244;49.242;9.060;2022-12-20T07:10:53;42.80;;;26.42;;
55362;SDS011;41244;49.242;9.060;2022-12-20T07:13:20;38.88;;;25.17;;
55362;SDS011;41244;49.242;9.060;2022-12-20T07:15:46;55.47;;;35.25;;
55362;SDS011;41244;49.242;9.060;2022-12-20T07:18:12;56.75;;;33.78;;
55362;SDS011;41244;49.242;9.060;2022-12-20T07:20:38;41.13;;;24.92;;
55362;SDS011;41244;49.242;9.060;2022-12-20T07:23:04;44.15;;;27.75;;
55362;SDS011;41244;49.242;9.060;2022-12-20T07:25:30;41.75;;;26.02;;
55362;SDS011;41244;49.242;9.060;2022-12-20T07:27:56;36.80;;;25.58;;
55362;SDS011;41244;49.242;9.060;2022-12-20T07:30:22;42.58;;;27.63;;
55362;SDS011;41244;49.242;9.060;2022-12-20T07:32:48;45.38;;;29.13;;
55362;SDS011;41244;49.242;9.060;2022-12-20T07:35:14;41.45;;;25.77;;
55362;SDS011;41244;49.242;9.060;2022-12-20T07:37:40;41.72;;;27.00;;
55362;SDS011;41244;49.242;9.060;2022-12-20T07:40:06;39.47;;;27.35;;
55362;SDS011;41244;49.242;9.060;2022-12-20T07:42:33;47.22;;;30.13;;
55362;SDS011;41244;49.242;9.060;2022-12-20T07:44:59;40.70;;;26.15;;
55362;SDS011;41244;49.242;9.060;2022-12-20T07:47:25;38.58;;;26.15;;
55362;SDS011;41244;49.242;9.060;2022-12-20T07:49:50;35.13;;;23.67;;
55362;SDS011;41244;49.242;9.060;2022-12-20T07:52:17;35.03;;;23.58;;
55362;SDS011;41244;49.242;9.060;2022-12-20T07:54:50;40.63;;;26.00;;
55362;SDS011;41244;49.242;9.060;2022-12-20T07:57:28;45.30;;;29.92;;
55362;SDS011;41244;49.242;9.060;2022-12-20T08:00:00;42.58;;;27.23;;
55362;SDS011;41244;49.242;9.060;2022-12-20T08:02:31;37.70;;;25.63;;
55362;SDS011;41244;49.242;9.060;2022-12-20T08:05:03;41.50;;;27.42;;
55362;SDS011;41244;49.242;9.060;2022-12-20T08:07:30;42.78;;;28.50;;
55362;SDS011;41244;49.242;9.060;2022-12-20T08:09:56;53.35;;;33.95;;
55362;SDS011;41244;49.242;9.060;2022-12-20T08:12:22;47.47;;;30.27;;
55362;SDS011;41244;49.242;9.060;2022-12-20T08:14:48;57.63;;;36.17;;
55362;SDS011;41244;49.242;9.060;2022-12-20T08:17:16;43.15;;;28.73;;
55362;SDS011;41244;49.242;9.060;2022-12-20T08:19:42;50.75;;;31.90;;
55362;SDS011;41244;49.242;9.060;2022-12-20T08:22:08;42.35;;;25.92;;
55362;SDS011;41244;49.242;9.060;2022-12-20T08:24:34;38.45;;;23.73;;
55362;SDS011;41244;49.242;9.060;2022-12-20T08:26:59;37.15;;;24.45;;
55362;SDS011;41244;49.242;9.060;2022-12-20T08:29:25;40.95;;;25.33;;
55362;SDS011;41244;49.242;9.060;2022-12-20T08:31:51;37.47;;;23.83;;
55362;SDS011;41244;49.242;9.060;2022-12-20T08:34:17;36.20;;;24.77;;
55362;SDS011;41244;49.242;9.060;2022-12-20T08:36:43;39.25;;;24.92;;
55362;SDS011;41244;49.242;9.060;2022-12-20T08:39:09;37.28;;;23.80;;
55362;SDS011;41244;49.242;9.060;2022-12-20T08:41:35;41.28;;;24.15;;
55362;SDS011;41244;49.242;9.060;2022-12-20T08:44:01;33.97;;;23.55;;
55362;SDS011;41244;49.242;9.060;2022-12-20T08:46:30;40.53;;;26.63;;
55362;SDS011;41244;49.242;9.060;2022-12-20T08:48:56;40.35;;;26.00;;
55362;SDS011;41244;49.242;9.060;2022-12-20T08:51:22;35.60;;;25.58;;
55362;SDS011;41244;49.242;9.060;2022-12-20T08:53:48;36.13;;;24.50;;
55362;SDS011;41244;49.242;9.060;2022-12-20T08:56:15;40.00;;;24.63;;
55362;SDS011;41244;49.242;9.060;2022-12-20T08:58:42;44.20;;;24.63;;
55362;SDS011;41244;49.242;9.060;2022-12-20T09:01:10;37.03;;;24.65;;
55362;SDS011;41244;49.242;9.060;2022-12-20T09:03:39;38.28;;;24.98;;
55362;SDS011;41244;49.242;9.060;2022-12-20T09:06:05;36.38;;;23.73;;
55362;SDS011;41244;49.242;9.060;2022-12-20T09:08:36;38.47;;;24.70;;
55362;SDS011;41244;49.242;9.060;2022-12-20T09:11:03;33.55;;;22.65;;
55362;SDS011;41244;49.242;9.060;2022-12-20T09:13:31;37.20;;;24.30;;
55362;SDS011;41244;49.242;9.060;2022-12-20T09:16:04;35.10;;;24.58;;
55362;SDS011;41244;49.242;9.060;2022-12-20T09:18:31;30.80;;;22.83;;
55362;SDS011;41244;49.242;9.060;2022-12-20T09:20:58;33.70;;;22.63;;
55362;SDS011;41244;49.242;9.060;2022-12-20T09:23:25;38.17;;;23.88;;
55362;SDS011;41244;49.242;9.060;2022-12-20T09:25:52;33.03;;;22.17;;
55362;SDS011;41244;49.242;9.060;2022-12-20T09:28:18;33.10;;;23.25;;
55362;SDS011;41244;49.242;9.060;2022-12-20T09:30:44;33.22;;;23.02;;
55362;SDS011;41244;49.242;9.060;2022-12-20T09:33:10;31.80;;;23.50;;
55362;SDS011;41244;49.242;9.060;2022-12-20T09:35:36;29.98;;;21.27;;
55362;SDS011;41244;49.242;9.060;2022-12-20T09:38:10;27.80;;;22.10;;
55362;SDS011;41244;49.242;9.060;2022-12-20T09:40:37;33.70;;;22.83;;
55362;SDS011;41244;49.242;9.060;2022-12-20T09:43:03;35.05;;;22.55;;
55362;SDS011;41244;49.242;9.060;2022-12-20T09:45:29;31.38;;;20.20;;
55362;SDS011;41244;49.242;9.060;2022-12-20T09:47:57;34.25;;;21.80;;
55362;SDS011;41244;49.242;9.060;2022-12-20T09:50:28;31.90;;;22.88;;
55362;SDS011;41244;49.242;9.060;2022-12-20T09:55:55;33.08;;;24.00;;
55362;SDS011;41244;49.242;9.060;2022-12-20T10:01:10;36.97;;;25.02;;
55362;SDS011;41244;49.242;9.060;2022-12-20T10:03:41;29.25;;;24.02;;
55362;SDS011;41244;49.242;9.060;2022-12-20T10:06:14;32.55;;;23.17;;
55362;SDS011;41244;49.242;9.060;2022-12-20T10:09:04;33.08;;;24.33;;
55362;SDS011;41244;49.242;9.060;2022-12-20T10:17:31;32.03;;;23.20;;
55362;SDS011;41244;49.242;9.060;2022-12-20T10:20:19;33.78;;;24.35;;
55362;SDS011;41244;49.242;9.060;2022-12-20T10:26:26;33.08;;;23.00;;
55362;SDS011;41244;49.242;9.060;2022-12-20T10:28:53;32.97;;;23.25;;
55362;SDS011;41244;49.242;9.060;2022-12-20T10:31:19;35.38;;;22.75;;
55362;SDS011;41244;49.242;9.060;2022-12-20T10:33:45;30.70;;;23.02;;
55362;SDS011;41244;49.242;9.060;2022-12-20T10:38:47;30.20;;;21.70;;
55362;SDS011;41244;49.242;9.060;2022-12-20T10:41:19;36.00;;;22.02;;
55362;SDS011;41244;49.242;9.060;2022-12-20T10:46:45;33.92;;;21.92;;
55362;SDS011;41244;49.242;9.060;2022-12-20T10:51:59;32.28;;;22.70;;
55362;SDS011;41244;49.242;9.060;2022-12-20T10:54:37;31.48;;;23.25;;
55362;SDS011;41244;49.242;9.060;2022-12-20T10:57:18;30.38;;;21.23;;
55362;SDS011;41244;49.242;9.060;2022-12-20T10:59:54;33.05;;;22.80;;
55362;SDS011;41244;49.242;9.060;2022-12-20T11:05:01;30.08;;;22.65;;
55362;SDS011;41244;49.242;9.060;2022-12-20T11:07:35;30.40;;;22.13;;
55362;SDS011;41244;49.242;9.060;2022-12-20T11:10:24;27.35;;;21.15;;
55362;SDS011;41244;49.242;9.060;2022-12-20T11:13:01;27.92;;;20.77;;
55362;SDS011;41244;49.242;9.060;2022-12-20T11:15:29;31.65;;;22.00;;
55362;SDS011;41244;49.242;9.060;2022-12-20T11:18:04;31.38;;;21.75;;
55362;SDS011;41244;49.242;9.060;2022-12-20T11:23:38;27.17;;;21.27;;
55362;SDS011;41244;49.242;9.060;2022-12-20T11:26:39;27.55;;;20.67;;
55362;SDS011;41244;49.242;9.060;2022-12-20T11:32:15;26.10;;;19.45;;
55362;SDS011;41244;49.242;9.060;2022-12-20T11:40:51;23.83;;;17.67;;
55362;SDS011;41244;49.242;9.060;2022-12-20T11:49:35;32.38;;;21.83;;
55362;SDS011;41244;49.242;9.060;2022-12-20T11:52:30;26.08;;;19.02;;
55362;SDS011;41244;49.242;9.060;2022-12-20T11:57:55;28.48;;;20.83;;
55362;SDS011;41244;49.242;9.060;2022-12-20T12:00:21;28.92;;;19.42;;
55362;SDS011;41244;49.242;9.060;2022-12-20T12:02:56;26.33;;;19.88;;
55362;SDS011;41244;49.242;9.060;2022-12-20T12:08:13;25.38;;;19.30;;
55362;SDS011;41244;49.242;9.060;2022-12-20T12:10:47;24.05;;;18.30;;
55362;SDS011;41244;49.242;9.060;2022-12-20T12:13:31;38.22;;;26.85;;
55362;SDS011;41244;49.242;9.060;2022-12-20T12:18:48;25.65;;;19.25;;
55362;SDS011;41244;49.242;9.060;2022-12-20T12:21:24;29.73;;;21.48;;
55362;SDS011;41244;49.242;9.060;2022-12-20T12:26:50;29.23;;;21.48;;
55362;SDS011;41244;49.242;9.060;2022-12-20T12:29:17;28.30;;;20.10;;
55362;SDS011;41244;49.242;9.060;2022-12-20T12:46:43;28.63;;;20.10;;
55362;SDS011;41244;49.242;9.060;2022-12-20T12:49:11;33.05;;;23.40;;
55362;SDS011;41244;49.242;9.060;2022-12-20T12:51:42;28.10;;;20.38;;
55362;SDS011;41244;49.242;9.060;2022-12-20T12:54:21;34.55;;;24.58;;
55362;SDS011;41244;49.242;9.060;2022-12-20T12:57:17;28.83;;;21.25;;
55362;SDS011;41244;49.242;9.060;2022-12-20T13:10:03;27.25;;;18.85;;
55362;SDS011;41244;49.242;9.060;2022-12-20T13:20:35;40.03;;;26.90;;
55362;SDS011;41244;49.242;9.060;2022-12-20T13:25:33;23.58;;;17.27;;
55362;SDS011;41244;49.242;9.060;2022-12-20T13:33:35;35.58;;;23.50;;
55362;SDS011;41244;49.242;9.060;2022-12-20T13:44:18;32.78;;;23.85;;
55362;SDS011;41244;49.242;9.060;2022-12-20T13:49:51;25.33;;;19.50;;
55362;SDS011;41244;49.242;9.060;2022-12-20T13:54:56;29.30;;;19.23;;
55362;SDS011;41244;49.242;9.060;2022-12-20T13:57:38;28.85;;;19.55;;
55362;SDS011;41244;49.242;9.060;2022-12-20T14:00:14;26.17;;;19.58;;
55362;SDS011;41244;49.242;9.060;2022-12-20T14:02:58;24.90;;;19.05;;
55362;SDS011;41244;49.242;9.060;2022-12-20T14:05:26;26.67;;;19.20;;
55362;SDS011;41244;49.242;9.060;2022-12-20T14:08:04;27.48;;;19.27;;
55362;SDS011;41244;49.242;9.060;2022-12-20T14:10:33;24.30;;;18.65;;
55362;SDS011;41244;49.242;9.060;2022-12-20T14:12:59;28.58;;;19.75;;
55362;SDS011;41244;49.242;9.060;2022-12-20T14:15:27;25.25;;;19.27;;
55362;SDS011;41244;49.242;9.060;2022-12-20T14:18:14;26.30;;;19.27;;
55362;SDS011;41244;49.242;9.060;2022-12-20T14:20:41;27.73;;;19.67;;
55362;SDS011;41244;49.242;9.060;2022-12-20T14:23:09;26.38;;;19.58;;
55362;SDS011;41244;49.242;9.060;2022-12-20T14:25:42;25.40;;;18.42;;
55362;SDS011;41244;49.242;9.060;2022-12-20T14:28:38;26.13;;;20.20;;
55362;SDS011;41244;49.242;9.060;2022-12-20T14:31:23;26.80;;;20.17;;
55362;SDS011;41244;49.242;9.060;2022-12-20T14:36:41;36.97;;;20.38;;
55362;SDS011;41244;49.242;9.060;2022-12-20T14:39:29;29.30;;;20.90;;
55362;SDS011;41244;49.242;9.060;2022-12-20T14:42:16;28.63;;;20.77;;
55362;SDS011;41244;49.242;9.060;2022-12-20T14:44:42;27.15;;;21.15;;
55362;SDS011;41244;49.242;9.060;2022-12-20T14:49:53;34.42;;;23.10;;
55362;SDS011;41244;49.242;9.060;2022-12-20T14:52:32;41.58;;;28.55;;
55362;SDS011;41244;49.242;9.060;2022-12-20T14:55:07;34.63;;;25.10;;
55362;SDS011;41244;49.242;9.060;2022-12-20T14:57:45;30.95;;;21.85;;
55362;SDS011;41244;49.242;9.060;2022-12-20T15:11:17;43.45;;;30.13;;
55362;SDS011;41244;49.242;9.060;2022-12-20T15:13:46;42.05;;;28.17;;
55362;SDS011;41244;49.242;9.060;2022-12-20T15:16:20;37.55;;;27.13;;
55362;SDS011;41244;49.242;9.060;2022-12-20T15:18:48;44.25;;;28.70;;
55362;SDS011;41244;49.242;9.060;2022-12-20T15:23:59;37.50;;;25.23;;
55362;SDS011;41244;49.242;9.060;2022-12-20T15:26:27;38.92;;;27.20;;
55362;SDS011;41244;49.242;9.060;2022-12-20T15:28:54;40.90;;;27.67;;
55362;SDS011;41244;49.242;9.060;2022-12-20T15:31:21;42.13;;;27.67;;
55362;SDS011;41244;49.242;9.060;2022-12-20T15:33:50;35.25;;;24.42;;
55362;SDS011;41244;49.242;9.060;2022-12-20T15:36:28;34.25;;;24.38;;
55362;SDS011;41244;49.242;9.060;2022-12-20T15:38:54;31.95;;;23.85;;
55362;SDS011;41244;49.242;9.060;2022-12-20T15:41:23;32.65;;;22.80;;
55362;SDS011;41244;49.242;9.060;2022-12-20T15:44:05;32.85;;;23.88;;
55362;SDS011;41244;49.242;9.060;2022-12-20T15:46:37;29.55;;;22.15;;
55362;SDS011;41244;49.242;9.060;2022-12-20T15:49:03;31.92;;;24.45;;
55362;SDS011;41244;49.242;9.060;2022-12-20T15:51:30;32.53;;;24.50;;
55362;SDS011;41244;49.242;9.060;2022-12-20T15:54:02;34.45;;;25.15;;
55362;SDS011;41244;49.242;9.060;2022-12-20T15:56:31;30.90;;;23.95;;
55362;SDS011;41244;49.242;9.060;2022-12-20T15:58:57;32.95;;;24.13;;
55362;SDS011;41244;49.242;9.060;2022-12-20T16:01:24;31.20;;;21.98;;
55362;SDS011;41244;49.242;9.060;2022-12-20T16:03:58;33.28;;;25.23;;
55362;SDS011;41244;49.242;9.060;2022-12-20T16:06:24;23.42;;;19.13;;
55362;SDS011;41244;49.242;9.060;2022-12-20T16:08:50;25.67;;;19.65;;
55362;SDS011;41244;49.242;9.060;2022-12-20T16:11:23;25.15;;;18.85;;
55362;SDS011;41244;49.242;9.060;2022-12-20T16:13:52;27.95;;;20.23;;
55362;SDS011;41244;49.242;9.060;2022-12-20T16:16:20;32.03;;;21.50;;
55362;SDS011;41244;49.242;9.060;2022-12-20T16:18:48;54.08;;;35.97;;
55362;SDS011;41244;49.242;9.060;2022-12-20T16:21:17;87.47;;;61.22;;
55362;SDS011;41244;49.242;9.060;2022-12-20T16:23:44;95.47;;;66.78;;
55362;SDS011;41244;49.242;9.060;2022-12-20T16:26:11;57.78;;;38.60;;
55362;SDS011;41244;49.242;9.060;2022-12-20T16:28:38;42.45;;;30.95;;
55362;SDS011;41244;49.242;9.060;2022-12-20T16:31:08;42.58;;;30.90;;
55362;SDS011;41244;49.242;9.060;2022-12-20T16:33:41;49.88;;;37.90;;
55362;SDS011;41244;49.242;9.060;2022-12-20T16:36:10;54.92;;;38.40;;
55362;SDS011;41244;49.242;9.060;2022-12-20T16:38:36;34.72;;;26.40;;
55362;SDS011;41244;49.242;9.060;2022-12-20T16:41:13;31.67;;;24.25;;
55362;SDS011;41244;49.242;9.060;2022-12-20T16:43:45;33.65;;;25.38;;
55362;SDS011;41244;49.242;9.060;2022-12-20T16:46:16;30.08;;;22.15;;
55362;SDS011;41244;49.242;9.060;2022-12-20T16:48:44;25.75;;;20.55;;
55362;SDS011;41244;49.242;9.060;2022-12-20T16:56:28;24.05;;;20.05;;
55362;SDS011;41244;49.242;9.060;2022-12-20T16:58:55;23.40;;;19.08;;
55362;SDS011;41244;49.242;9.060;2022-12-20T17:01:32;30.73;;;22.25;;
55362;SDS011;41244;49.242;9.060;2022-12-20T17:03:59;23.15;;;19.63;;
55362;SDS011;41244;49.242;9.060;2022-12-20T17:06:26;23.75;;;19.40;;